sensor_id;sensor_type;location;lat;lon;timestamp;pressure;altitude;pressure_sealevel;temperature;humidity
72921;BME280;61064;51.654;5.476;2022-10-30T00:00:33;101674.94;;;15.97;73.62
72921;BME280;61064;51.654;5.476;2022-10-30T00:02:59;101693.72;;;16.04;73.72
72921;BME280;61064;51.654;5.476;2022-10-30T00:05:25;101655.31;;;15.76;73.81
72921;BME280;61064;51.654;5.476;2022-10-30T00:07:50;101624.03;;;15.62;73.86
72921;BME280;61064;51.654;5.476;2022-10-30T00:10:16;101647.25;;;15.72;73.93
72921;BME280;61064;51.654;5.476;2022-10-30T00:12:47;101663.34;;;15.81;73.83
72921;BME280;61064;51.654;5.476;2022-10-30T00:15:13;101681.25;;;15.87;73.92
72921;BME280;61064;51.654;5.476;2022-10-30T00:17:42;101669.63;;;15.69;74.11
72921;BME280;61064;51.654;5.476;2022-10-30T00:20:08;101642.84;;;15.59;73.81
72921;BME280;61064;51.654;5.476;2022-10-30T00:22:36;101697.34;;;15.87;74.11
72921;BME280;61064;51.654;5.476;2022-10-30T00:25:03;101660.69;;;15.63;74.11
72921;BME280;61064;51.654;5.476;2022-10-30T00:27:28;101700.03;;;15.79;74.57
72921;BME280;61064;51.654;5.476;2022-10-30T00:29:54;101653.56;;;15.53;74.37
72921;BME280;61064;51.654;5.476;2022-10-30T00:32:20;101678.56;;;15.68;74.48
72921;BME280;61064;51.654;5.476;2022-10-30T00:34:45;101684.84;;;15.64;74.22
72921;BME280;61064;51.654;5.476;2022-10-30T00:37:10;101669.66;;;15.65;74.43
72921;BME280;61064;51.654;5.476;2022-10-30T00:39:36;101675.00;;;15.65;74.33
72921;BME280;61064;51.654;5.476;2022-10-30T00:42:02;101662.50;;;15.56;74.41
72921;BME280;61064;51.654;5.476;2022-10-30T00:44:41;101710.75;;;15.84;74.60
72921;BME280;61064;51.654;5.476;2022-10-30T00:52:22;101707.19;;;15.71;74.83
72921;BME280;61064;51.654;5.476;2022-10-30T00:54:51;101667.84;;;15.47;74.69
72921;BME280;61064;51.654;5.476;2022-10-30T00:57:18;101688.44;;;15.53;74.88
72921;BME280;61064;51.654;5.476;2022-10-30T00:59:48;101670.50;;;15.35;75.10
72921;BME280;61064;51.654;5.476;2022-10-30T01:02:14;101683.91;;;15.44;75.13
72921;BME280;61064;51.654;5.476;2022-10-30T01:04:43;101642.81;;;15.13;75.22
72921;BME280;61064;51.654;5.476;2022-10-30T01:07:13;101645.47;;;15.07;75.18
72921;BME280;61064;51.654;5.476;2022-10-30T01:09:44;101692.88;;;15.31;75.44
72921;BME280;61064;51.654;5.476;2022-10-30T01:12:10;101696.41;;;15.28;75.47
72921;BME280;61064;51.654;5.476;2022-10-30T01:14:45;101647.28;;;14.97;75.48
72921;BME280;61064;51.654;5.476;2022-10-30T01:20:05;101688.38;;;15.13;75.69
72921;BME280;61064;51.654;5.476;2022-10-30T01:22:53;101721.44;;;15.27;75.63
72921;BME280;61064;51.654;5.476;2022-10-30T01:31:20;101691.94;;;14.97;75.84
72921;BME280;61064;51.654;5.476;2022-10-30T01:34:20;101716.94;;;15.07;75.91
72921;BME280;61064;51.654;5.476;2022-10-30T01:39:25;101715.16;;;15.01;76.17
72921;BME280;61064;51.654;5.476;2022-10-30T01:41:52;101685.63;;;14.78;76.28
72921;BME280;61064;51.654;5.476;2022-10-30T01:44:31;101663.25;;;14.63;76.14
72921;BME280;61064;51.654;5.476;2022-10-30T01:53:45;101733.88;;;14.93;76.49
72921;BME280;61064;51.654;5.476;2022-10-30T01:56:35;101733.00;;;14.90;76.62
72921;BME280;61064;51.654;5.476;2022-10-30T02:01:45;101676.63;;;14.56;76.49
72921;BME280;61064;51.654;5.476;2022-10-30T02:04:12;101727.59;;;14.79;76.73
72921;BME280;61064;51.654;5.476;2022-10-30T02:06:39;101649.75;;;14.31;76.68
72921;BME280;61064;51.654;5.476;2022-10-30T02:09:04;101655.97;;;14.34;76.86
72921;BME280;61064;51.654;5.476;2022-10-30T02:11:32;101712.41;;;14.71;77.02
72921;BME280;61064;51.654;5.476;2022-10-30T02:14:02;101663.09;;;14.32;76.96
72921;BME280;61064;51.654;5.476;2022-10-30T02:16:29;101683.75;;;14.47;77.16
72921;BME280;61064;51.654;5.476;2022-10-30T02:18:55;101738.31;;;14.75;77.16
72921;BME280;61064;51.654;5.476;2022-10-30T02:21:20;101653.25;;;14.27;77.16
72921;BME280;61064;51.654;5.476;2022-10-30T02:23:50;101645.25;;;14.25;77.45
72921;BME280;61064;51.654;5.476;2022-10-30T02:26:17;101687.31;;;14.55;77.41
72921;BME280;61064;51.654;5.476;2022-10-30T02:28:43;101642.56;;;14.28;77.68
72921;BME280;61064;51.654;5.476;2022-10-30T02:31:08;101665.84;;;14.38;77.65
72921;BME280;61064;51.654;5.476;2022-10-30T02:33:34;101708.81;;;14.69;77.53
72921;BME280;61064;51.654;5.476;2022-10-30T02:35:59;101681.09;;;14.53;77.66
72921;BME280;61064;51.654;5.476;2022-10-30T02:38:25;101724.91;;;14.73;77.71
72921;BME280;61064;51.654;5.476;2022-10-30T02:40:51;101719.56;;;14.76;77.44
72921;BME280;61064;51.654;5.476;2022-10-30T02:43:20;101690.94;;;14.62;77.53
72921;BME280;61064;51.654;5.476;2022-10-30T02:45:49;101659.63;;;14.41;77.64
72921;BME280;61064;51.654;5.476;2022-10-30T02:48:16;101724.94;;;14.76;77.54
72921;BME280;61064;51.654;5.476;2022-10-30T02:50:42;101688.19;;;14.49;77.55
72921;BME280;61064;51.654;5.476;2022-10-30T02:53:09;101698.97;;;14.66;77.71
72921;BME280;61064;51.654;5.476;2022-10-30T02:55:34;101653.38;;;14.40;77.62
72921;BME280;61064;51.654;5.476;2022-10-30T02:58:02;101682.88;;;14.62;77.84
72921;BME280;61064;51.654;5.476;2022-10-30T03:00:28;101710.59;;;14.73;77.79
72921;BME280;61064;51.654;5.476;2022-10-30T03:03:04;101665.00;;;14.47;78.02
72921;BME280;61064;51.654;5.476;2022-10-30T03:05:30;101664.97;;;14.44;77.88
72921;BME280;61064;51.654;5.476;2022-10-30T03:07:58;101691.81;;;14.62;78.01
72921;BME280;61064;51.654;5.476;2022-10-30T03:10:25;101665.88;;;14.44;77.74
72921;BME280;61064;51.654;5.476;2022-10-30T03:12:50;101737.47;;;14.86;78.08
72921;BME280;61064;51.654;5.476;2022-10-30T03:15:16;101679.31;;;14.58;77.93
72921;BME280;61064;51.654;5.476;2022-10-30T03:17:42;101658.75;;;14.42;78.11
72921;BME280;61064;51.654;5.476;2022-10-30T03:20:08;101644.38;;;14.34;78.05
72921;BME280;61064;51.654;5.476;2022-10-30T03:22:36;101666.75;;;14.39;78.17
72921;BME280;61064;51.654;5.476;2022-10-30T03:25:04;101702.53;;;14.67;78.28
72921;BME280;61064;51.654;5.476;2022-10-30T03:27:30;101702.56;;;14.70;78.22
72921;BME280;61064;51.654;5.476;2022-10-30T03:29:57;101740.13;;;14.85;78.33
72921;BME280;61064;51.654;5.476;2022-10-30T03:32:24;101709.72;;;14.69;78.34
72921;BME280;61064;51.654;5.476;2022-10-30T03:34:49;101741.91;;;14.84;78.45
72921;BME280;61064;51.654;5.476;2022-10-30T03:37:17;101708.78;;;14.66;78.48
72921;BME280;61064;51.654;5.476;2022-10-30T03:39:43;101688.22;;;14.51;78.44
72921;BME280;61064;51.654;5.476;2022-10-30T03:42:08;101653.28;;;14.33;78.31
72921;BME280;61064;51.654;5.476;2022-10-30T03:44:34;101694.50;;;14.62;78.53
72921;BME280;61064;51.654;5.476;2022-10-30T03:46:59;101712.34;;;14.62;78.49
72921;BME280;61064;51.654;5.476;2022-10-30T03:49:27;101684.63;;;14.50;78.64
72921;BME280;61064;51.654;5.476;2022-10-30T03:51:53;101660.44;;;14.34;78.67
72921;BME280;61064;51.654;5.476;2022-10-30T03:54:20;101672.97;;;14.36;78.58
72921;BME280;61064;51.654;5.476;2022-10-30T03:56:46;101727.53;;;14.61;78.77
72921;BME280;61064;51.654;5.476;2022-10-30T03:59:11;101694.44;;;14.42;78.67
72921;BME280;61064;51.654;5.476;2022-10-30T04:01:37;101765.06;;;14.72;78.79
72921;BME280;61064;51.654;5.476;2022-10-30T04:04:02;101680.03;;;14.27;78.75
72921;BME280;61064;51.654;5.476;2022-10-30T04:06:28;101723.00;;;14.46;78.90
72921;BME280;61064;51.654;5.476;2022-10-30T04:08:54;101737.31;;;14.51;78.96
72921;BME280;61064;51.654;5.476;2022-10-30T04:11:20;101708.69;;;14.37;78.92
72921;BME280;61064;51.654;5.476;2022-10-30T04:13:45;101688.03;;;14.22;79.01
72921;BME280;61064;51.654;5.476;2022-10-30T04:16:11;101671.91;;;14.10;78.82
72921;BME280;61064;51.654;5.476;2022-10-30T04:18:36;101713.97;;;14.34;79.04
72921;BME280;61064;51.654;5.476;2022-10-30T04:21:03;101726.56;;;14.44;79.10
72921;BME280;61064;51.654;5.476;2022-10-30T04:23:31;101701.47;;;14.25;79.10
72921;BME280;61064;51.654;5.476;2022-10-30T04:25:59;101707.72;;;14.26;79.00
72921;BME280;61064;51.654;5.476;2022-10-30T04:28:24;101701.44;;;14.24;78.95
72921;BME280;61064;51.654;5.476;2022-10-30T04:30:50;101673.69;;;14.05;78.98
72921;BME280;61064;51.654;5.476;2022-10-30T04:33:15;101676.34;;;14.02;79.07
72921;BME280;61064;51.654;5.476;2022-10-30T04:35:41;101675.47;;;14.01;79.08
72921;BME280;61064;51.654;5.476;2022-10-30T04:38:11;101674.53;;;13.99;78.93
72921;BME280;61064;51.654;5.476;2022-10-30T04:40:41;101748.84;;;14.38;79.12
72921;BME280;61064;51.654;5.476;2022-10-30T04:43:10;101723.75;;;14.20;79.25
72921;BME280;61064;51.654;5.476;2022-10-30T04:45:38;101690.63;;;14.05;79.34
72921;BME280;61064;51.654;5.476;2022-10-30T04:48:10;101711.19;;;14.15;79.50
72921;BME280;61064;51.654;5.476;2022-10-30T04:50:35;101689.78;;;14.11;79.54
72921;BME280;61064;51.654;5.476;2022-10-30T04:53:06;101696.91;;;14.12;79.69
72921;BME280;61064;51.654;5.476;2022-10-30T04:55:32;101700.50;;;14.09;79.76
72921;BME280;61064;51.654;5.476;2022-10-30T04:57:59;101726.44;;;14.27;79.86
72921;BME280;61064;51.654;5.476;2022-10-30T05:00:25;101695.13;;;14.08;79.91
72921;BME280;61064;51.654;5.476;2022-10-30T05:02:51;101709.44;;;14.18;79.95
72921;BME280;61064;51.654;5.476;2022-10-30T05:05:17;101711.22;;;14.19;80.02
72921;BME280;61064;51.654;5.476;2022-10-30T05:07:42;101720.16;;;14.22;79.96
72921;BME280;61064;51.654;5.476;2022-10-30T05:10:12;101636.94;;;13.69;80.01
72921;BME280;61064;51.654;5.476;2022-10-30T05:12:42;101653.03;;;13.78;79.89
72921;BME280;61064;51.654;5.476;2022-10-30T05:15:08;101686.09;;;13.94;79.97
72921;BME280;61064;51.654;5.476;2022-10-30T05:17:33;101684.31;;;13.90;80.02
72921;BME280;61064;51.654;5.476;2022-10-30T05:20:02;101681.63;;;13.90;79.99
72921;BME280;61064;51.654;5.476;2022-10-30T05:22:30;101683.38;;;13.85;80.04
72921;BME280;61064;51.654;5.476;2022-10-30T05:24:55;101648.47;;;13.62;79.94
72921;BME280;61064;51.654;5.476;2022-10-30T05:27:21;101677.97;;;13.77;80.23
72921;BME280;61064;51.654;5.476;2022-10-30T05:29:46;101708.41;;;13.91;80.18
72921;BME280;61064;51.654;5.476;2022-10-30T05:32:12;101668.06;;;13.62;80.18
72921;BME280;61064;51.654;5.476;2022-10-30T05:34:37;101689.56;;;13.74;80.30
72921;BME280;61064;51.654;5.476;2022-10-30T05:37:03;101705.63;;;13.79;80.26
72921;BME280;61064;51.654;5.476;2022-10-30T05:39:28;101720.81;;;13.83;80.04
72921;BME280;61064;51.654;5.476;2022-10-30T05:41:54;101721.69;;;13.79;80.14
72921;BME280;61064;51.654;5.476;2022-10-30T05:44:19;101724.34;;;13.76;80.38
72921;BME280;61064;51.654;5.476;2022-10-30T05:46:45;101725.19;;;13.72;80.34
72921;BME280;61064;51.654;5.476;2022-10-30T05:49:10;101698.34;;;13.57;80.21
72921;BME280;61064;51.654;5.476;2022-10-30T05:51:35;101741.31;;;13.80;80.45
72921;BME280;61064;51.654;5.476;2022-10-30T05:54:01;101750.22;;;13.79;80.35
72921;BME280;61064;51.654;5.476;2022-10-30T05:56:26;101716.19;;;13.58;80.38
72921;BME280;61064;51.654;5.476;2022-10-30T05:58:51;101727.81;;;13.64;80.49
72921;BME280;61064;51.654;5.476;2022-10-30T06:01:17;101683.03;;;13.38;80.54
72921;BME280;61064;51.654;5.476;2022-10-30T06:03:44;101741.19;;;13.66;80.66
72921;BME280;61064;51.654;5.476;2022-10-30T06:06:10;101718.81;;;13.55;80.70
72921;BME280;61064;51.654;5.476;2022-10-30T06:08:35;101718.75;;;13.46;80.60
72921;BME280;61064;51.654;5.476;2022-10-30T06:11:00;101737.50;;;13.52;80.59
72921;BME280;61064;51.654;5.476;2022-10-30T06:13:26;101741.97;;;13.53;80.40
72921;BME280;61064;51.654;5.476;2022-10-30T06:15:53;101715.94;;;13.32;80.58
72921;BME280;61064;51.654;5.476;2022-10-30T06:18:19;101748.16;;;13.49;80.65
72921;BME280;61064;51.654;5.476;2022-10-30T06:20:44;101742.78;;;13.44;80.61
72921;BME280;61064;51.654;5.476;2022-10-30T06:23:10;101731.97;;;13.32;80.71
72921;BME280;61064;51.654;5.476;2022-10-30T06:25:35;101656.69;;;12.88;80.61
72921;BME280;61064;51.654;5.476;2022-10-30T06:28:01;101692.56;;;13.11;80.87
72921;BME280;61064;51.654;5.476;2022-10-30T06:30:27;101729.25;;;13.27;80.74
72921;BME280;61064;51.654;5.476;2022-10-30T06:32:59;101683.53;;;13.00;80.98
72921;BME280;61064;51.654;5.476;2022-10-30T06:35:26;101715.78;;;13.15;80.96
72921;BME280;61064;51.654;5.476;2022-10-30T06:37:52;101683.50;;;12.99;81.08
72921;BME280;61064;51.654;5.476;2022-10-30T06:40:19;101679.97;;;12.97;81.30
72921;BME280;61064;51.654;5.476;2022-10-30T06:42:46;101728.31;;;13.21;81.53
72921;BME280;61064;51.654;5.476;2022-10-30T06:45:16;101690.66;;;13.00;81.60
72921;BME280;61064;51.654;5.476;2022-10-30T06:47:42;101740.78;;;13.20;81.45
72921;BME280;61064;51.654;5.476;2022-10-30T06:50:10;101696.88;;;12.97;81.71
72921;BME280;61064;51.654;5.476;2022-10-30T06:52:36;101672.72;;;12.88;81.81
72921;BME280;61064;51.654;5.476;2022-10-30T06:55:03;101718.44;;;13.12;81.74
72921;BME280;61064;51.654;5.476;2022-10-30T06:57:29;101739.94;;;13.24;81.79
72921;BME280;61064;51.654;5.476;2022-10-30T06:59:54;101722.91;;;13.13;81.84
72921;BME280;61064;51.654;5.476;2022-10-30T07:02:20;101693.34;;;13.01;81.82
72921;BME280;61064;51.654;5.476;2022-10-30T07:04:45;101737.28;;;13.27;81.73
72921;BME280;61064;51.654;5.476;2022-10-30T07:07:12;101692.50;;;13.05;81.90
72921;BME280;61064;51.654;5.476;2022-10-30T07:09:39;101689.94;;;13.13;81.97
72921;BME280;61064;51.654;5.476;2022-10-30T07:12:05;101719.53;;;13.34;81.95
72921;BME280;61064;51.654;5.476;2022-10-30T07:14:32;101721.31;;;13.33;81.97
72921;BME280;61064;51.654;5.476;2022-10-30T07:16:58;101719.50;;;13.32;81.94
72921;BME280;61064;51.654;5.476;2022-10-30T07:19:23;101692.53;;;13.10;82.11
72921;BME280;61064;51.654;5.476;2022-10-30T07:21:49;101643.41;;;12.93;82.12
72921;BME280;61064;51.654;5.476;2022-10-30T07:24:15;101688.19;;;13.16;81.98
72921;BME280;61064;51.654;5.476;2022-10-30T07:26:41;101701.59;;;13.19;82.15
72921;BME280;61064;51.654;5.476;2022-10-30T07:29:07;101678.28;;;13.11;82.12
72921;BME280;61064;51.654;5.476;2022-10-30T07:31:33;101669.47;;;13.13;82.07
72921;BME280;61064;51.654;5.476;2022-10-30T07:34:01;101647.03;;;12.98;82.20
72921;BME280;61064;51.654;5.476;2022-10-30T07:36:26;101708.81;;;13.32;82.24
72921;BME280;61064;51.654;5.476;2022-10-30T07:38:54;101677.53;;;13.21;82.22
72921;BME280;61064;51.654;5.476;2022-10-30T07:41:20;101698.13;;;13.32;82.13
72921;BME280;61064;51.654;5.476;2022-10-30T07:43:45;101677.59;;;13.28;82.24
72921;BME280;61064;51.654;5.476;2022-10-30T07:46:12;101699.13;;;13.42;82.12
72921;BME280;61064;51.654;5.476;2022-10-30T07:48:40;101697.38;;;13.47;82.23
72921;BME280;61064;51.654;5.476;2022-10-30T07:51:06;101692.03;;;13.49;82.35
72921;BME280;61064;51.654;5.476;2022-10-30T07:53:32;101714.50;;;13.72;82.53
72921;BME280;61064;51.654;5.476;2022-10-30T07:56:00;101650.09;;;13.40;82.38
72921;BME280;61064;51.654;5.476;2022-10-30T07:58:25;101691.28;;;13.65;82.39
72921;BME280;61064;51.654;5.476;2022-10-30T08:00:50;101653.72;;;13.47;82.34
72921;BME280;61064;51.654;5.476;2022-10-30T08:03:16;101685.97;;;13.69;82.38
72921;BME280;61064;51.654;5.476;2022-10-30T08:05:41;101733.44;;;14.02;82.42
72921;BME280;61064;51.654;5.476;2022-10-30T08:08:09;101695.88;;;13.86;82.42
72921;BME280;61064;51.654;5.476;2022-10-30T08:10:35;101695.03;;;13.91;82.24
72921;BME280;61064;51.654;5.476;2022-10-30T08:13:01;101731.72;;;14.16;82.29
72921;BME280;61064;51.654;5.476;2022-10-30T08:15:26;101678.13;;;13.98;82.00
72921;BME280;61064;51.654;5.476;2022-10-30T08:17:52;101721.06;;;14.27;82.13
72921;BME280;61064;51.654;5.476;2022-10-30T08:20:21;101675.50;;;14.12;82.09
72921;BME280;61064;51.654;5.476;2022-10-30T08:22:47;101718.56;;;14.47;82.16
72921;BME280;61064;51.654;5.476;2022-10-30T08:25:13;101669.44;;;14.37;82.18
72921;BME280;61064;51.654;5.476;2022-10-30T08:27:49;101669.44;;;14.43;81.95
72921;BME280;61064;51.654;5.476;2022-10-30T08:30:15;101672.16;;;14.48;81.69
72921;BME280;61064;51.654;5.476;2022-10-30T08:32:40;101723.13;;;14.78;81.45
72921;BME280;61064;51.654;5.476;2022-10-30T08:35:06;101721.31;;;14.77;81.56
72921;BME280;61064;51.654;5.476;2022-10-30T08:37:31;101698.09;;;14.64;81.56
72921;BME280;61064;51.654;5.476;2022-10-30T08:39:57;101718.69;;;14.86;81.51
72921;BME280;61064;51.654;5.476;2022-10-30T08:42:22;101700.81;;;14.82;81.50
72921;BME280;61064;51.654;5.476;2022-10-30T08:44:50;101720.50;;;14.96;81.41
72921;BME280;61064;51.654;5.476;2022-10-30T08:47:20;101669.56;;;14.81;81.28
72921;BME280;61064;51.654;5.476;2022-10-30T08:49:45;101649.00;;;14.73;81.33
72921;BME280;61064;51.654;5.476;2022-10-30T08:52:10;101640.97;;;14.74;81.19
72921;BME280;61064;51.654;5.476;2022-10-30T08:54:36;101708.91;;;15.17;81.17
72921;BME280;61064;51.654;5.476;2022-10-30T08:57:01;101718.75;;;15.27;81.05
72921;BME280;61064;51.654;5.476;2022-10-30T08:59:26;101725.94;;;15.30;81.21
72921;BME280;61064;51.654;5.476;2022-10-30T09:01:52;101682.13;;;15.13;80.83
72921;BME280;61064;51.654;5.476;2022-10-30T09:04:17;101685.69;;;15.24;81.06
72921;BME280;61064;51.654;5.476;2022-10-30T09:06:43;101722.41;;;15.52;80.84
72921;BME280;61064;51.654;5.476;2022-10-30T09:09:10;101697.34;;;15.43;80.65
72921;BME280;61064;51.654;5.476;2022-10-30T09:11:36;101660.66;;;15.32;80.46
72921;BME280;61064;51.654;5.476;2022-10-30T09:14:01;101634.78;;;15.31;80.48
72921;BME280;61064;51.654;5.476;2022-10-30T09:16:27;101695.56;;;15.67;80.44
72921;BME280;61064;51.654;5.476;2022-10-30T09:18:54;101668.75;;;15.66;80.31
72921;BME280;61064;51.654;5.476;2022-10-30T09:21:20;101692.84;;;15.92;80.17
72921;BME280;61064;51.654;5.476;2022-10-30T09:23:45;101647.25;;;15.81;79.92
72921;BME280;61064;51.654;5.476;2022-10-30T09:26:10;101641.88;;;15.86;80.13
72921;BME280;61064;51.654;5.476;2022-10-30T09:28:38;101681.13;;;16.32;79.91
72921;BME280;61064;51.654;5.476;2022-10-30T09:31:04;101675.72;;;16.38;79.68
72921;BME280;61064;51.654;5.476;2022-10-30T09:33:29;101657.75;;;16.45;79.55
72921;BME280;61064;51.654;5.476;2022-10-30T09:35:54;101693.41;;;16.85;79.29
72921;BME280;61064;51.654;5.476;2022-10-30T09:38:20;101649.53;;;16.80;78.66
72921;BME280;61064;51.654;5.476;2022-10-30T09:43:37;101694.09;;;17.22;78.45
72921;BME280;61064;51.654;5.476;2022-10-30T09:49:17;101695.59;;;17.55;78.04
72921;BME280;61064;51.654;5.476;2022-10-30T10:00:28;101709.66;;;17.90;76.68
72921;BME280;61064;51.654;5.476;2022-10-30T10:05:49;101718.38;;;18.13;76.07
72921;BME280;61064;51.654;5.476;2022-10-30T10:08:37;101723.78;;;18.12;75.95
72921;BME280;61064;51.654;5.476;2022-10-30T10:11:17;101726.34;;;18.22;75.63
72921;BME280;61064;51.654;5.476;2022-10-30T10:13:56;101723.63;;;18.27;75.68
72921;BME280;61064;51.654;5.476;2022-10-30T10:16:30;101729.81;;;18.34;75.76
72921;BME280;61064;51.654;5.476;2022-10-30T10:19:06;101716.25;;;18.44;75.58
72921;BME280;61064;51.654;5.476;2022-10-30T10:21:41;101706.22;;;18.58;75.24
72921;BME280;61064;51.654;5.476;2022-10-30T10:24:22;101701.53;;;18.73;75.24
72921;BME280;61064;51.654;5.476;2022-10-30T10:26:59;101687.84;;;18.86;74.78
72921;BME280;61064;51.654;5.476;2022-10-30T10:35:31;101697.06;;;19.33;73.81
72921;BME280;61064;51.654;5.476;2022-10-30T10:38:21;101698.66;;;19.46;73.45
72921;BME280;61064;51.654;5.476;2022-10-30T10:41:15;101690.41;;;19.55;73.15
72921;BME280;61064;51.654;5.476;2022-10-30T10:52:01;101699.34;;;20.08;71.66
72921;BME280;61064;51.654;5.476;2022-10-30T10:54:38;101690.25;;;20.12;71.25
72921;BME280;61064;51.654;5.476;2022-10-30T10:57:06;101697.22;;;20.25;71.25
72921;BME280;61064;51.654;5.476;2022-10-30T10:59:41;101698.72;;;20.40;70.77
72921;BME280;61064;51.654;5.476;2022-10-30T11:05:06;101691.94;;;20.62;69.59
72921;BME280;61064;51.654;5.476;2022-10-30T11:07:42;101685.47;;;20.70;69.28
72921;BME280;61064;51.654;5.476;2022-10-30T11:10:14;101695.91;;;20.87;69.36
72921;BME280;61064;51.654;5.476;2022-10-30T11:12:40;101658.22;;;20.80;68.58
72921;BME280;61064;51.654;5.476;2022-10-30T11:17:54;101661.91;;;21.15;67.81
72921;BME280;61064;51.654;5.476;2022-10-30T11:20:30;101671.44;;;21.32;67.72
72921;BME280;61064;51.654;5.476;2022-10-30T11:22:58;101656.84;;;21.37;67.41
72921;BME280;61064;51.654;5.476;2022-10-30T11:25:25;101621.03;;;21.26;66.70
72921;BME280;61064;51.654;5.476;2022-10-30T11:27:59;101637.75;;;21.43;66.69
72921;BME280;61064;51.654;5.476;2022-10-30T11:30:27;101640.19;;;21.54;65.97
72921;BME280;61064;51.654;5.476;2022-10-30T11:32:56;101619.53;;;21.50;65.82
72921;BME280;61064;51.654;5.476;2022-10-30T11:35:22;101642.59;;;21.65;65.74
72921;BME280;61064;51.654;5.476;2022-10-30T11:37:49;101617.63;;;21.53;65.46
72921;BME280;61064;51.654;5.476;2022-10-30T11:40:18;101649.78;;;21.67;65.25
72921;BME280;61064;51.654;5.476;2022-10-30T11:42:46;101665.97;;;21.69;65.48
72921;BME280;61064;51.654;5.476;2022-10-30T11:45:39;101658.88;;;21.63;65.93
72921;BME280;61064;51.654;5.476;2022-10-30T11:48:30;101667.88;;;21.65;65.68
72921;BME280;61064;51.654;5.476;2022-10-30T11:51:00;101666.94;;;21.66;65.63
72921;BME280;61064;51.654;5.476;2022-10-30T11:53:41;101628.56;;;21.49;65.38
72921;BME280;61064;51.654;5.476;2022-10-30T11:56:23;101662.31;;;21.70;65.20
72921;BME280;61064;51.654;5.476;2022-10-30T11:58:53;101615.91;;;21.51;64.95
72921;BME280;61064;51.654;5.476;2022-10-30T12:01:36;101610.53;;;21.49;64.82
72921;BME280;61064;51.654;5.476;2022-10-30T12:04:22;101605.16;;;21.46;64.95
72921;BME280;61064;51.654;5.476;2022-10-30T12:07:25;101652.47;;;21.67;64.86
72921;BME280;61064;51.654;5.476;2022-10-30T12:09:55;101658.50;;;21.78;64.49
72921;BME280;61064;51.654;5.476;2022-10-30T12:12:35;101653.88;;;21.82;64.23
72921;BME280;61064;51.654;5.476;2022-10-30T12:17:38;101620.00;;;21.66;63.62
72921;BME280;61064;51.654;5.476;2022-10-30T12:20:12;101643.38;;;21.70;63.60
72921;BME280;61064;51.654;5.476;2022-10-30T12:22:38;101631.97;;;21.57;63.68
72921;BME280;61064;51.654;5.476;2022-10-30T12:27:43;101636.50;;;21.56;63.35
72921;BME280;61064;51.654;5.476;2022-10-30T12:30:16;101607.19;;;21.38;63.45
72921;BME280;61064;51.654;5.476;2022-10-30T12:32:54;101618.16;;;21.34;63.53
72921;BME280;61064;51.654;5.476;2022-10-30T12:37:55;101635.09;;;21.40;63.01
72921;BME280;61064;51.654;5.476;2022-10-30T12:40:29;101583.81;;;20.99;63.04
72921;BME280;61064;51.654;5.476;2022-10-30T12:43:27;101597.19;;;21.05;63.47
72921;BME280;61064;51.654;5.476;2022-10-30T12:46:15;101629.28;;;21.22;63.35
72921;BME280;61064;51.654;5.476;2022-10-30T12:51:46;101592.19;;;20.90;63.26
72921;BME280;61064;51.654;5.476;2022-10-30T12:54:34;101633.06;;;21.13;63.40
72921;BME280;61064;51.654;5.476;2022-10-30T12:57:12;101617.97;;;21.03;63.25
72921;BME280;61064;51.654;5.476;2022-10-30T13:05:27;101626.47;;;21.26;63.40
72921;BME280;61064;51.654;5.476;2022-10-30T13:08:00;101630.81;;;21.33;63.16
72921;BME280;61064;51.654;5.476;2022-10-30T13:10:38;101615.78;;;21.20;63.03
72921;BME280;61064;51.654;5.476;2022-10-30T13:13:14;101556.78;;;20.97;63.24
72921;BME280;61064;51.654;5.476;2022-10-30T13:15:45;101581.63;;;21.16;62.91
72921;BME280;61064;51.654;5.476;2022-10-30T13:18:18;101614.19;;;21.47;62.78
72921;BME280;61064;51.654;5.476;2022-10-30T13:23:24;101604.94;;;21.55;62.57
72921;BME280;61064;51.654;5.476;2022-10-30T13:26:25;101623.75;;;21.62;62.50
72921;BME280;61064;51.654;5.476;2022-10-30T13:29:10;101615.63;;;21.62;62.65
72921;BME280;61064;51.654;5.476;2022-10-30T13:34:54;101613.09;;;21.54;62.66
72921;BME280;61064;51.654;5.476;2022-10-30T13:37:57;101613.97;;;21.56;62.44
72921;BME280;61064;51.654;5.476;2022-10-30T13:40:35;101614.16;;;21.48;62.97
72921;BME280;61064;51.654;5.476;2022-10-30T13:54:32;101615.09;;;21.10;63.11
72921;BME280;61064;51.654;5.476;2022-10-30T14:06:26;101613.59;;;20.97;63.72
72921;BME280;61064;51.654;5.476;2022-10-30T14:11:32;101548.69;;;20.60;63.65
72921;BME280;61064;51.654;5.476;2022-10-30T14:14:23;101619.84;;;21.01;63.67
72921;BME280;61064;51.654;5.476;2022-10-30T14:17:16;101606.31;;;21.01;63.95
72921;BME280;61064;51.654;5.476;2022-10-30T14:22:29;101619.75;;;21.04;63.82
72921;BME280;61064;51.654;5.476;2022-10-30T14:24:56;101586.00;;;20.83;63.54
72921;BME280;61064;51.654;5.476;2022-10-30T14:27:32;101611.00;;;20.94;63.83
72921;BME280;61064;51.654;5.476;2022-10-30T14:30:00;101578.06;;;20.75;63.57
72921;BME280;61064;51.654;5.476;2022-10-30T14:32:35;101621.75;;;20.96;63.50
72921;BME280;61064;51.654;5.476;2022-10-30T14:35:26;101574.97;;;20.55;63.48
72921;BME280;61064;51.654;5.476;2022-10-30T14:37:55;101590.06;;;20.64;63.60
72921;BME280;61064;51.654;5.476;2022-10-30T14:43:24;101624.00;;;20.79;64.05
72921;BME280;61064;51.654;5.476;2022-10-30T14:45:59;101598.97;;;20.67;63.65
72921;BME280;61064;51.654;5.476;2022-10-30T14:48:44;101599.84;;;20.69;63.74
72921;BME280;61064;51.654;5.476;2022-10-30T14:51:39;101607.03;;;20.72;63.96
72921;BME280;61064;51.654;5.476;2022-10-30T14:54:25;101614.13;;;20.76;64.02
72921;BME280;61064;51.654;5.476;2022-10-30T14:56:53;101615.94;;;20.75;64.06